createdAt,value
2022-11-21T00:01:16.576Z,95182.81
2022-11-21T00:03:44.351Z,95177.34
2022-11-21T00:06:13.510Z,95146.19
2022-11-21T00:08:41.199Z,95182.81
2022-11-21T00:11:08.927Z,95186.50
2022-11-21T00:13:37.121Z,95178.91
2022-11-21T00:16:05.681Z,95177.06
2022-11-21T00:18:34.456Z,95158.75
2022-11-21T00:21:05.741Z,95184.41
2022-11-21T00:23:34.923Z,95085.97
2022-11-21T00:26:05.712Z,95056.50
2022-11-21T00:28:33.478Z,95169.47
2022-11-21T00:31:01.139Z,95153.78
2022-11-21T00:33:28.880Z,95179.44
2022-11-21T00:35:56.608Z,95069.34
2022-11-21T00:38:25.143Z,95186.75
2022-11-21T00:40:54.111Z,95180.75
2022-11-21T00:43:21.767Z,95175.00
2022-11-21T00:45:49.432Z,95182.84
2022-11-21T00:48:17.078Z,95129.53
2022-11-21T00:50:45.002Z,95171.88
2022-11-21T00:53:12.888Z,95171.91
2022-11-21T00:55:40.552Z,95172.38
2022-11-21T00:58:09.595Z,95171.59
2022-11-21T01:00:37.302Z,95169.50
2022-11-21T01:03:04.968Z,95175.00
2022-11-21T01:05:33.225Z,95165.31
2022-11-21T01:08:00.872Z,95163.53
2022-11-21T01:10:28.639Z,95165.63
2022-11-21T01:12:56.282Z,95164.31
2022-11-21T01:15:25.267Z,95163.78
2022-11-21T01:17:53.038Z,95164.81
2022-11-21T01:20:20.681Z,95167.97
2022-11-21T01:22:48.697Z,95169.03
2022-11-21T01:25:16.438Z,95157.25
2022-11-21T01:27:44.116Z,95154.38
2022-11-21T01:30:13.260Z,95160.41
2022-11-21T01:32:42.267Z,95153.06
2022-11-21T01:35:10.459Z,95150.72
2022-11-21T01:37:38.122Z,95146.28
2022-11-21T01:40:06.534Z,95147.59
2022-11-21T01:42:50.720Z,95152.31
2022-11-21T01:45:55.010Z,95155.69
2022-11-21T01:48:30.143Z,95154.66
2022-11-21T01:51:01.681Z,95154.91
2022-11-21T01:53:29.409Z,95153.06
2022-11-21T01:55:57.123Z,95145.50
2022-11-21T01:58:25.327Z,95053.78
2022-11-21T02:00:53.361Z,95134.28
2022-11-21T02:03:25.831Z,95122.03
2022-11-21T02:05:55.538Z,95025.09
2022-11-21T02:08:26.109Z,95116.00
2022-11-21T02:11:03.645Z,95115.72
2022-11-21T02:13:31.390Z,95110.75
2022-11-21T02:15:59.279Z,95107.91
2022-11-21T02:18:28.270Z,95107.66
2022-11-21T02:21:02.848Z,95100.84
2022-11-21T02:23:39.298Z,95082.81
2022-11-21T02:26:08.538Z,95090.94
2022-11-21T02:28:36.320Z,95095.34
2022-11-21T02:31:03.997Z,95094.28
2022-11-21T02:33:31.683Z,95093.78
2022-11-21T02:36:00.782Z,95088.84
2022-11-21T02:38:31.848Z,95091.44
2022-11-21T02:41:10.745Z,95089.34
2022-11-21T02:43:43.524Z,95092.22
2022-11-21T02:46:11.355Z,95083.09
2022-11-21T02:48:39.760Z,95098.75
2022-11-21T02:51:10.464Z,95100.84
2022-11-21T02:53:38.140Z,95085.19
2022-11-21T02:56:05.995Z,95095.09
2022-11-21T02:58:35.101Z,94962.41
2022-11-21T03:01:02.774Z,95092.22
2022-11-21T03:03:30.460Z,95090.66
2022-11-21T03:05:58.141Z,95077.88
2022-11-21T03:08:25.786Z,95084.13
2022-11-21T03:10:53.419Z,94957.47
2022-11-21T03:13:21.129Z,95070.53
2022-11-21T03:15:50.102Z,95066.38
2022-11-21T03:18:17.762Z,94919.09
2022-11-21T03:20:45.443Z,95062.19
2022-11-21T03:23:13.090Z,95050.94
2022-11-21T03:25:40.790Z,95037.09
2022-11-21T03:28:08.432Z,95037.66
2022-11-21T03:30:36.305Z,95038.94
2022-11-21T03:33:05.342Z,95039.72
2022-11-21T03:35:33.070Z,95036.84
2022-11-21T03:38:00.775Z,95041.03
2022-11-21T03:40:28.414Z,95050.16
2022-11-21T03:42:56.070Z,95037.13
2022-11-21T03:45:23.792Z,94953.31
2022-11-21T03:47:51.410Z,94950.69
2022-11-21T03:50:21.517Z,95023.78
2022-11-21T03:52:49.148Z,95036.34
2022-11-21T03:55:17.036Z,95034.78
2022-11-21T03:57:44.693Z,95021.44
2022-11-21T04:00:14.058Z,95029.28
2022-11-21T04:02:41.722Z,95023.53
2022-11-21T04:05:10.054Z,95025.88
2022-11-21T04:07:39.072Z,95019.09
2022-11-21T04:10:07.592Z,95010.72
2022-11-21T04:12:35.328Z,95024.28
2022-11-21T04:15:03.080Z,95005.22
2022-11-21T04:17:31.877Z,95018.00
2022-11-21T04:19:59.538Z,95011.22
2022-11-21T04:22:27.190Z,95020.88
2022-11-21T04:24:56.160Z,95020.34
2022-11-21T04:27:23.827Z,94996.34
2022-11-21T04:29:51.501Z,95003.13
2022-11-21T04:32:19.254Z,94998.94
2022-11-21T04:34:46.877Z,95006.75
2022-11-21T04:37:14.579Z,95013.03
2022-11-21T04:39:42.280Z,95019.31
2022-11-21T04:42:11.278Z,95016.44
2022-11-21T04:44:39.186Z,95020.59
2022-11-21T04:47:07.056Z,95016.44
2022-11-21T04:49:35.832Z,95011.22
2022-11-21T04:52:03.612Z,95007.84
2022-11-21T04:54:31.526Z,94949.13
2022-11-21T04:56:59.348Z,94990.09
2022-11-21T04:59:28.440Z,94994.53
2022-11-21T05:01:56.122Z,94974.44
2022-11-21T05:04:26.316Z,94980.97
2022-11-21T05:06:54.286Z,94970.00
2022-11-21T05:09:21.935Z,94969.72
2022-11-21T05:12:06.995Z,94966.88
2022-11-21T05:14:35.988Z,94961.13
2022-11-21T05:17:03.613Z,94965.25
2022-11-21T05:19:31.464Z,94970.75
2022-11-21T05:21:59.105Z,94970.25
2022-11-21T05:24:27.058Z,94962.41
2022-11-21T05:26:55.486Z,94941.03
2022-11-21T05:29:27.881Z,94963.72
2022-11-21T05:31:57.482Z,94974.69
2022-11-21T05:34:25.614Z,94966.59
2022-11-21T05:36:57.020Z,94949.38
2022-11-21T05:39:24.853Z,94968.97
2022-11-21T05:41:52.862Z,94969.47
2022-11-21T05:44:19.785Z,94973.91
2022-11-21T05:46:47.727Z,94966.88
2022-11-21T05:49:16.730Z,94968.16
2022-11-21T05:51:44.367Z,94976.25
2022-11-21T05:54:14.611Z,94976.78
2022-11-21T05:56:42.607Z,94980.72
2022-11-21T05:59:17.001Z,94976.28
2022-11-21T06:02:07.501Z,94980.19
2022-11-21T06:04:37.604Z,94984.88
2022-11-21T06:07:06.094Z,94978.88
2022-11-21T06:09:33.793Z,94977.31
2022-11-21T06:12:01.449Z,94978.13
2022-11-21T06:14:29.322Z,94983.56
2022-11-21T06:16:58.562Z,94989.59
2022-11-21T06:19:26.349Z,94988.53
2022-11-21T06:21:55.360Z,94920.41
2022-11-21T06:24:23.222Z,94918.88
2022-11-21T06:26:50.887Z,94993.22
2022-11-21T06:29:18.520Z,94986.44
2022-11-21T06:31:46.493Z,94993.75
2022-11-21T06:34:14.189Z,94990.13
2022-11-21T06:36:42.051Z,94990.09
2022-11-21T06:39:11.151Z,94955.66
2022-11-21T06:41:38.873Z,94903.72
2022-11-21T06:44:06.587Z,94996.91
2022-11-21T06:46:34.256Z,94989.06
2022-11-21T06:49:02.071Z,94996.63
2022-11-21T06:51:29.760Z,95001.34
2022-11-21T06:53:59.117Z,95002.63
2022-11-21T06:56:30.209Z,95006.56
2022-11-21T06:58:58.159Z,95012.81
2022-11-21T07:01:26.443Z,95004.22
2022-11-21T07:03:54.256Z,95009.41
2022-11-21T07:06:22.026Z,95017.50
2022-11-21T07:09:17.577Z,95018.84
2022-11-21T07:11:42.674Z,95023.53
2022-11-21T07:14:09.730Z,95034.50
2022-11-21T07:16:38.072Z,95032.41
2022-11-21T07:19:05.736Z,95039.22
2022-11-21T07:21:33.412Z,95020.66
2022-11-21T07:24:01.061Z,95029.81
2022-11-21T07:26:28.754Z,95039.72
2022-11-21T07:28:57.755Z,95047.56
2022-11-21T07:31:25.424Z,95052.50
2022-11-21T07:33:53.101Z,95058.50
2022-11-21T07:36:20.764Z,95058.78
2022-11-21T07:38:48.401Z,95056.66
2022-11-21T07:41:16.025Z,95039.16
2022-11-21T07:43:43.695Z,95061.63
2022-11-21T07:46:12.696Z,95056.13
2022-11-21T07:48:40.323Z,95067.88
2022-11-21T07:51:08.087Z,95065.28
2022-11-21T07:53:35.714Z,95061.09
2022-11-21T07:56:04.771Z,95063.19
2022-11-21T07:58:32.418Z,95062.16
2022-11-21T08:01:00.060Z,95061.38
2022-11-21T08:03:29.070Z,95059.03
2022-11-21T08:05:56.731Z,95070.00
2022-11-21T08:08:24.361Z,95070.78
2022-11-21T08:10:52.341Z,95075.50
2022-11-21T08:13:20.116Z,95076.78
2022-11-21T08:15:47.821Z,95080.47
2022-11-21T08:18:18.946Z,95070.03
2022-11-21T08:20:48.121Z,95079.41
2022-11-21T08:23:16.188Z,95079.44
2022-11-21T08:25:45.070Z,95066.91
2022-11-21T08:28:13.326Z,95075.50
2022-11-21T08:30:41.586Z,95069.50
2022-11-21T08:33:09.688Z,95074.47
2022-11-21T08:35:38.595Z,95063.97
2022-11-21T08:38:07.873Z,95070.50
2022-11-21T08:40:36.719Z,95061.38
2022-11-21T08:43:07.463Z,94988.03
2022-11-21T08:45:36.104Z,95083.59
2022-11-21T08:48:04.251Z,95064.53
2022-11-21T08:50:32.455Z,95082.03
2022-11-21T08:53:01.412Z,95073.69
2022-11-21T08:55:30.880Z,95078.91
2022-11-21T08:57:58.616Z,95076.75
2022-11-21T09:00:26.483Z,95082.50
2022-11-21T09:02:54.255Z,95072.03
2022-11-21T09:05:22.015Z,95064.19
2022-11-21T09:07:49.778Z,95078.81
2022-11-21T09:10:17.543Z,95072.28
2022-11-21T09:12:46.675Z,95067.84
2022-11-21T09:15:31.963Z,95069.59
2022-11-21T09:18:04.665Z,95070.06
2022-11-21T09:20:34.052Z,95077.91
2022-11-21T09:23:05.289Z,95070.31
2022-11-21T09:25:33.024Z,95065.41
2022-11-21T09:28:03.245Z,95060.63
2022-11-21T09:30:30.892Z,95076.56
2022-11-21T09:33:01.554Z,95062.03
2022-11-21T09:35:29.495Z,95063.06
2022-11-21T09:37:57.155Z,95057.56
2022-11-21T09:40:25.418Z,95063.59
2022-11-21T09:43:15.935Z,95065.31
2022-11-21T09:45:48.974Z,95063.00
2022-11-21T09:48:20.351Z,95038.19
2022-11-21T09:50:54.005Z,95055.78
2022-11-21T09:53:26.332Z,95049.03
2022-11-21T09:55:59.527Z,95023.97
2022-11-21T09:58:33.757Z,95048.25
2022-11-21T10:01:03.000Z,95045.44
2022-11-21T10:03:33.936Z,95058.63
2022-11-21T10:06:05.645Z,95051.72
2022-11-21T10:08:42.860Z,95053.84
2022-11-21T10:11:20.285Z,95040.88
2022-11-21T10:13:58.535Z,95044.22
2022-11-21T10:16:40.737Z,95036.88
2022-11-21T10:19:29.046Z,95035.00
2022-11-21T10:22:09.803Z,95025.38
2022-11-21T10:24:44.893Z,95026.72
2022-11-21T10:27:16.972Z,94908.56
2022-11-21T10:29:53.160Z,95021.09
2022-11-21T10:32:25.922Z,95012.47
2022-11-21T10:34:58.972Z,94995.78
2022-11-21T10:37:36.326Z,95002.59
2022-11-21T10:40:15.796Z,94998.19
2022-11-21T10:42:51.132Z,94991.13
2022-11-21T10:45:18.748Z,94986.91
2022-11-21T10:47:49.327Z,94990.94
2022-11-21T10:50:38.258Z,94988.34
2022-11-21T10:53:34.921Z,94986.31
2022-11-21T10:56:05.521Z,94992.31
2022-11-21T10:58:42.325Z,94977.72
2022-11-21T11:01:21.688Z,94976.13
2022-11-21T11:04:26.795Z,94977.81
2022-11-21T11:06:53.798Z,94964.97
2022-11-21T11:09:30.303Z,94959.09
2022-11-21T11:12:45.589Z,94957.25
2022-11-21T11:15:22.282Z,94956.38
2022-11-21T11:17:56.079Z,94939.34
2022-11-21T11:20:35.264Z,94942.66
2022-11-21T11:23:26.628Z,94933.09
2022-11-21T11:25:56.033Z,94942.91
2022-11-21T11:28:25.011Z,94861.16
2022-11-21T11:30:54.827Z,94949.59
2022-11-21T11:33:31.380Z,94896.59
2022-11-21T11:36:11.048Z,94933.81
2022-11-21T11:38:38.739Z,94925.25
2022-11-21T11:41:14.161Z,94919.69
2022-11-21T11:44:10.775Z,94911.72
2022-11-21T11:47:04.508Z,94914.28
2022-11-21T11:49:59.764Z,94914.16
2022-11-21T11:52:34.017Z,94914.25
2022-11-21T11:55:06.377Z,94910.63
2022-11-21T11:57:37.983Z,94903.28
2022-11-21T12:00:20.922Z,94904.91
2022-11-21T12:02:58.252Z,94910.25
2022-11-21T12:05:28.097Z,94906.69
2022-11-21T12:08:40.021Z,94847.47
2022-11-21T12:11:15.689Z,94895.72
2022-11-21T12:13:44.732Z,94897.09
2022-11-21T12:16:15.134Z,94785.53
2022-11-21T12:18:52.940Z,94878.69
2022-11-21T12:21:20.938Z,94875.00
2022-11-21T12:23:51.897Z,94866.69
2022-11-21T12:26:44.022Z,94855.06
2022-11-21T12:29:23.899Z,94852.38
2022-11-21T12:32:02.551Z,94843.34
2022-11-21T12:34:47.110Z,94843.34
2022-11-21T12:37:28.110Z,94840.72
2022-11-21T12:40:01.163Z,94830.25
2022-11-21T12:42:49.998Z,94828.69
2022-11-21T12:45:40.905Z,94832.84
2022-11-21T12:48:39.160Z,94816.41
2022-11-21T12:51:36.692Z,94823.94
2022-11-21T12:54:32.004Z,94814.41
2022-11-21T12:57:09.894Z,94806.53
2022-11-21T12:59:47.760Z,94813.91
2022-11-21T13:02:27.900Z,94805.81
2022-11-21T13:04:58.688Z,94805.53
2022-11-21T13:07:29.631Z,94799.16
2022-11-21T13:10:00.179Z,94793.38
2022-11-21T13:12:36.503Z,94779.94
2022-11-21T13:15:15.891Z,94786.44
2022-11-21T13:17:50.440Z,94777.44
2022-11-21T13:20:32.572Z,94727.78
2022-11-21T13:23:01.788Z,94773.28
2022-11-21T13:25:48.436Z,94768.56
2022-11-21T13:28:41.747Z,94768.16
2022-11-21T13:31:30.287Z,94765.09
2022-11-21T13:33:58.907Z,94760.72
2022-11-21T13:36:38.874Z,94746.75
2022-11-21T13:39:28.644Z,94759.81
2022-11-21T13:42:20.428Z,94753.63
2022-11-21T13:44:50.162Z,94722.75
2022-11-21T13:47:56.221Z,94742.53
2022-11-21T13:50:46.520Z,94743.28
2022-11-21T13:53:29.490Z,94754.00
2022-11-21T13:56:00.112Z,94728.97
2022-11-21T13:58:41.586Z,94730.63
2022-11-21T14:01:34.089Z,94715.06
2022-11-21T14:04:40.615Z,94685.56
2022-11-21T14:07:27.123Z,94718.00
2022-11-21T14:09:56.999Z,94713.47
2022-11-21T14:12:33.636Z,94714.22
2022-11-21T14:15:20.729Z,94717.56
2022-11-21T14:17:52.319Z,94704.75
2022-11-21T14:20:23.361Z,94711.53
2022-11-21T14:23:01.252Z,94705.09
2022-11-21T14:25:36.924Z,94699.50
2022-11-21T14:28:07.646Z,94688.56
2022-11-21T14:30:37.984Z,94690.03
2022-11-21T14:33:26.607Z,94686.22
2022-11-21T14:35:56.854Z,94688.84
2022-11-21T14:38:25.222Z,94679.25
2022-11-21T14:41:17.174Z,94682.81
2022-11-21T14:43:44.899Z,94674.97
2022-11-21T14:46:15.861Z,94678.81
2022-11-21T14:48:44.922Z,94666.84
2022-11-21T14:51:17.662Z,94660.91
2022-11-21T14:53:47.137Z,94653.78
2022-11-21T14:56:22.370Z,94659.38
2022-11-21T14:58:51.398Z,94633.88
2022-11-21T15:01:22.957Z,94597.84
2022-11-21T15:03:59.372Z,94648.47
2022-11-21T15:06:27.056Z,94634.78
2022-11-21T15:10:05.716Z,94649.94
2022-11-21T15:11:50.042Z,94627.72
2022-11-21T15:14:23.860Z,94600.47
2022-11-21T15:16:54.366Z,94621.00
2022-11-21T15:19:25.493Z,94542.22
2022-11-21T15:21:56.362Z,94611.78
2022-11-21T15:24:37.423Z,94610.84
2022-11-21T15:27:31.243Z,94596.16
2022-11-21T15:30:04.365Z,94535.03
2022-11-21T15:32:32.059Z,94591.25
2022-11-21T15:35:01.532Z,94587.91
2022-11-21T15:37:29.182Z,94590.34
2022-11-21T15:39:56.927Z,94590.50
2022-11-21T15:42:38.571Z,94579.38
2022-11-21T15:45:23.807Z,94569.31
2022-11-21T15:47:51.772Z,94567.09
2022-11-21T15:50:23.912Z,94565.56
2022-11-21T15:52:52.826Z,94570.25
2022-11-21T15:55:23.245Z,94524.56
2022-11-21T15:57:51.094Z,94557.63
2022-11-21T16:00:19.166Z,94515.06
2022-11-21T16:02:47.420Z,94437.94
2022-11-21T16:05:16.908Z,94541.75
2022-11-21T16:07:45.972Z,94545.13
2022-11-21T16:10:21.341Z,94538.19
2022-11-21T16:12:53.690Z,94535.31
2022-11-21T16:15:22.012Z,94530.91
2022-11-21T16:17:49.652Z,94526.16
2022-11-21T16:20:17.339Z,94530.66
2022-11-21T16:22:48.000Z,94523.94
2022-11-21T16:25:15.906Z,94518.38
2022-11-21T16:27:43.584Z,94522.41
2022-11-21T16:30:14.789Z,94512.84
2022-11-21T16:32:42.434Z,94490.91
2022-11-21T16:35:10.622Z,94502.53
2022-11-21T16:37:38.242Z,94468.00
2022-11-21T16:40:08.821Z,94500.75
2022-11-21T16:42:36.520Z,94494.03
2022-11-21T16:45:05.335Z,94494.53
2022-11-21T16:47:32.952Z,94493.91
2022-11-21T16:50:00.610Z,94481.06
2022-11-21T16:52:28.225Z,94487.69
2022-11-21T16:54:55.900Z,94479.91
2022-11-21T16:57:24.933Z,94469.81
2022-11-21T16:59:52.589Z,94463.66
2022-11-21T17:02:20.261Z,94460.59
2022-11-21T17:04:47.930Z,94459.63
2022-11-21T17:07:15.724Z,94457.47
2022-11-21T17:09:45.915Z,94454.63
2022-11-21T17:12:13.904Z,94452.34
2022-11-21T17:14:43.158Z,94434.66
2022-11-21T17:17:10.791Z,94428.84
2022-11-21T17:19:38.488Z,94437.16
2022-11-21T17:22:06.188Z,94385.38
2022-11-21T17:24:33.987Z,94414.91
2022-11-21T17:27:02.617Z,94428.69
2022-11-21T17:29:30.711Z,94414.69
2022-11-21T17:31:59.748Z,94414.66
2022-11-21T17:34:32.724Z,94402.66
2022-11-21T17:37:00.794Z,94407.31
2022-11-21T17:39:30.098Z,94407.78
2022-11-21T17:41:59.305Z,94396.53
2022-11-21T17:44:27.292Z,94387.09
2022-11-21T17:46:55.299Z,94391.81
2022-11-21T17:49:24.750Z,94380.78
2022-11-21T17:51:56.446Z,94379.81
2022-11-21T17:54:24.670Z,94379.25
2022-11-21T17:56:56.637Z,94375.34
2022-11-21T17:59:24.737Z,94373.28
2022-11-21T18:01:52.528Z,94372.00
2022-11-21T18:04:20.663Z,94355.13
2022-11-21T18:06:49.691Z,94367.00
2022-11-21T18:09:17.833Z,94344.91
2022-11-21T18:11:46.299Z,94353.69
2022-11-21T18:14:14.720Z,94360.41
2022-11-21T18:16:47.617Z,94358.63
2022-11-21T18:19:18.707Z,94357.72
2022-11-21T18:21:46.359Z,94354.69
2022-11-21T18:24:15.324Z,94343.13
2022-11-21T18:26:42.961Z,94347.59
2022-11-21T18:29:35.258Z,94343.69
2022-11-21T18:31:58.815Z,94331.13
2022-11-21T18:34:26.450Z,94323.53
2022-11-21T18:36:54.514Z,94319.13
2022-11-21T18:39:25.026Z,94266.50
2022-11-21T18:41:52.693Z,94309.25
2022-11-21T18:44:22.572Z,94308.19
2022-11-21T18:46:50.664Z,94300.38
2022-11-21T18:49:18.455Z,94255.53
2022-11-21T18:51:46.209Z,94294.03
2022-11-21T18:54:13.836Z,94280.13
2022-11-21T18:56:43.013Z,94276.25
2022-11-21T18:59:11.241Z,94272.94
2022-11-21T19:01:40.073Z,94265.72
2022-11-21T19:04:08.607Z,94257.84
2022-11-21T19:06:36.708Z,94257.06
2022-11-21T19:09:05.354Z,94252.53
2022-11-21T19:11:33.222Z,94250.91
2022-11-21T19:14:02.357Z,94248.88
2022-11-21T19:16:33.849Z,94243.84
2022-11-21T19:21:49.816Z,94219.75
2022-11-21T19:24:19.202Z,94241.25
2022-11-21T19:26:46.940Z,94229.81
2022-11-21T19:29:15.892Z,94211.94
2022-11-21T19:31:46.004Z,94109.94
2022-11-21T19:34:14.189Z,94211.84
2022-11-21T19:36:42.143Z,94205.53
2022-11-21T19:39:10.100Z,94203.97
2022-11-21T19:41:38.201Z,94199.44
2022-11-21T19:44:06.205Z,94191.53
2022-11-21T19:46:37.037Z,94125.22
2022-11-21T19:49:06.512Z,94150.72
2022-11-21T19:51:36.864Z,94099.13
2022-11-21T19:54:05.319Z,94138.88
2022-11-21T19:56:33.696Z,94134.13
2022-11-21T19:59:01.511Z,94146.78
2022-11-21T20:01:30.822Z,94140.34
2022-11-21T20:04:02.428Z,94151.06
2022-11-21T20:06:31.980Z,94156.34
2022-11-21T20:09:01.407Z,94152.91
2022-11-21T20:11:31.142Z,94166.59
2022-11-21T20:13:59.478Z,94150.25
2022-11-21T20:16:28.850Z,94140.25
2022-11-21T20:18:58.992Z,94137.63
2022-11-21T20:21:28.170Z,94139.63
2022-11-21T20:23:56.406Z,94154.13
2022-11-21T20:26:25.030Z,94070.56
2022-11-21T20:28:53.217Z,94138.69
2022-11-21T20:31:22.814Z,94130.44
2022-11-21T20:33:51.817Z,94135.78
2022-11-21T20:36:21.327Z,94120.81
2022-11-21T20:38:52.614Z,94116.19
2022-11-21T20:41:20.829Z,94142.91
2022-11-21T20:46:36.578Z,94138.50
2022-11-21T20:49:04.311Z,94126.44
2022-11-21T20:54:20.983Z,94123.84
2022-11-21T20:56:48.725Z,94120.63
2022-11-21T20:59:16.484Z,94122.13
2022-11-21T21:01:44.257Z,94125.66
2022-11-21T21:04:12.130Z,94117.59
2022-11-21T21:06:40.030Z,94104.00
2022-11-21T21:09:07.827Z,94107.72
2022-11-21T21:11:51.480Z,94087.81
2022-11-21T21:14:20.091Z,94093.47
2022-11-21T21:16:47.778Z,94089.75
2022-11-21T21:19:15.561Z,94104.06
2022-11-21T21:21:43.211Z,94094.63
2022-11-21T21:24:12.108Z,94099.56
2022-11-21T21:26:43.657Z,94104.22
2022-11-21T21:29:12.785Z,94104.16
2022-11-21T21:31:45.263Z,94099.72
2022-11-21T21:34:17.686Z,94096.13
2022-11-21T21:36:45.447Z,94099.00
2022-11-21T21:39:19.295Z,94114.09
2022-11-21T21:41:48.375Z,94078.44
2022-11-21T21:44:16.642Z,94078.44
2022-11-21T21:46:45.213Z,93993.66
2022-11-21T21:49:13.280Z,94096.22
2022-11-21T21:51:41.302Z,94091.72
2022-11-21T21:54:17.437Z,94089.03
2022-11-21T21:56:46.609Z,94091.88
2022-11-21T21:59:17.936Z,94077.72
2022-11-21T22:01:45.717Z,94095.91
2022-11-21T22:04:13.579Z,94084.63
2022-11-21T22:06:41.484Z,94081.84
2022-11-21T22:09:09.372Z,94083.97
2022-11-21T22:11:38.362Z,94090.03
2022-11-21T22:14:08.019Z,94083.53
2022-11-21T22:16:37.054Z,94074.56
2022-11-21T22:19:04.720Z,94058.59
2022-11-21T22:21:34.204Z,94075.09
2022-11-21T22:26:51.514Z,94068.34
2022-11-21T22:29:19.225Z,94077.16
2022-11-21T22:31:48.235Z,94073.00
2022-11-21T22:34:15.934Z,94068.34
2022-11-21T22:36:44.646Z,94074.44
2022-11-21T22:39:12.283Z,94068.75
2022-11-21T22:41:39.966Z,94059.94
2022-11-21T22:44:09.913Z,94073.78
2022-11-21T22:46:37.591Z,94071.88
2022-11-21T22:49:06.701Z,94106.25
2022-11-21T22:51:34.632Z,94121.41
2022-11-21T22:54:02.414Z,94118.16
2022-11-21T22:56:30.121Z,94110.59
2022-11-21T22:58:57.808Z,94134.53
2022-11-21T23:01:26.994Z,94140.31
2022-11-21T23:03:56.524Z,94120.13
2022-11-21T23:06:27.349Z,94100.03
2022-11-21T23:08:56.475Z,94106.25
2022-11-21T23:11:26.054Z,94094.22
2022-11-21T23:13:54.582Z,94087.97
2022-11-21T23:16:23.172Z,94081.97
2022-11-21T23:18:53.421Z,94069.06
2022-11-21T23:21:21.578Z,94086.16
2022-11-21T23:23:50.935Z,94087.13
2022-11-21T23:26:18.598Z,94099.50
2022-11-21T23:28:46.311Z,94102.34
2022-11-21T23:31:14.015Z,94096.19
2022-11-21T23:33:41.749Z,94087.75
2022-11-21T23:36:09.605Z,94079.75
2022-11-21T23:38:37.543Z,94061.81
2022-11-21T23:41:09.256Z,94073.56
2022-11-21T23:43:37.411Z,94079.88
2022-11-21T23:46:05.117Z,94087.97
2022-11-21T23:48:32.818Z,94083.91
2022-11-21T23:51:00.512Z,94083.41
2022-11-21T23:53:28.150Z,94089.03
2022-11-21T23:55:55.846Z,94091.84
2022-11-21T23:58:24.833Z,94094.41
